createdAt,value
2022-11-13T00:00:02.036Z,7.75
2022-11-13T00:05:02.161Z,7.76
2022-11-13T00:10:02.127Z,7.82
2022-11-13T00:15:02.034Z,7.83
2022-11-13T00:20:02.123Z,7.84
2022-11-13T00:25:02.062Z,7.88
2022-11-13T00:30:02.099Z,7.89
2022-11-13T00:35:02.176Z,7.87
2022-11-13T00:40:01.966Z,7.85
2022-11-13T00:45:02.091Z,7.83
2022-11-13T00:50:02.207Z,7.82
2022-11-13T00:55:01.480Z,7.85
2022-11-13T01:00:02.108Z,7.84
2022-11-13T01:05:01.662Z,7.86
2022-11-13T01:10:02.020Z,7.87
2022-11-13T01:15:02.233Z,7.82
2022-11-13T01:20:02.095Z,7.76
2022-11-13T01:25:02.037Z,7.68
2022-11-13T01:30:01.415Z,7.62
2022-11-13T01:35:01.747Z,7.59
2022-11-13T01:40:01.840Z,7.59
2022-11-13T01:45:02.046Z,7.56
2022-11-13T01:50:02.203Z,7.49
2022-11-13T01:55:02.111Z,7.42
2022-11-13T02:00:01.414Z,7.39
2022-11-13T02:05:02.258Z,7.43
2022-11-13T02:10:01.469Z,7.39
2022-11-13T02:15:02.067Z,7.38
2022-11-13T02:20:02.156Z,7.4
2022-11-13T02:25:01.255Z,7.4
2022-11-13T02:30:01.731Z,7.23
2022-11-13T02:35:01.839Z,7.17
2022-11-13T02:40:01.934Z,7.03
2022-11-13T02:45:02.087Z,7.05
2022-11-13T02:50:02.203Z,7.13
2022-11-13T02:55:01.412Z,7.14
2022-11-13T03:00:01.669Z,7.14
2022-11-13T03:05:13.987Z,7.16
2022-11-13T03:10:01.976Z,7.09
2022-11-13T03:15:01.283Z,7.11
2022-11-13T03:20:01.915Z,7.04
2022-11-13T03:25:06.048Z,6.88
2022-11-13T03:30:01.380Z,6.9
2022-11-13T03:35:01.812Z,7.04
2022-11-13T03:40:01.946Z,7.22
2022-11-13T03:45:01.808Z,7.23
2022-11-13T03:50:01.840Z,7.27
2022-11-13T03:55:01.754Z,7.27
2022-11-13T04:00:01.332Z,7.39
2022-11-13T04:05:01.580Z,7.45
2022-11-13T04:10:01.407Z,7.46
2022-11-13T04:15:01.855Z,7.48
2022-11-13T04:20:02.234Z,7.58
2022-11-13T04:25:01.371Z,7.57
2022-11-13T04:30:01.585Z,7.62
2022-11-13T04:35:01.615Z,7.72
2022-11-13T04:40:01.524Z,7.78
2022-11-13T04:45:01.580Z,7.75
2022-11-13T04:50:01.852Z,7.7
2022-11-13T04:55:01.510Z,7.72
2022-11-13T05:00:01.924Z,7.72
2022-11-13T05:05:04.893Z,7.63
2022-11-13T05:10:01.819Z,7.5
2022-11-13T05:15:02.186Z,7.34
2022-11-13T05:20:01.269Z,7.34
2022-11-13T05:25:01.525Z,7.31
2022-11-13T05:30:01.937Z,7.16
2022-11-13T05:35:02.080Z,7.17
2022-11-13T05:40:01.478Z,7.27
2022-11-13T05:45:01.645Z,7.37
2022-11-13T05:50:01.693Z,7.48
2022-11-13T05:55:01.580Z,7.55
2022-11-13T06:00:01.749Z,7.7
2022-11-13T06:05:02.034Z,7.65
2022-11-13T06:10:02.236Z,7.6
2022-11-13T06:15:02.251Z,7.55
2022-11-13T06:20:01.387Z,7.4
2022-11-13T06:25:01.919Z,7.26
2022-11-13T06:30:01.865Z,7.25
2022-11-13T06:35:02.110Z,7.09
2022-11-13T06:40:02.004Z,6.94
2022-11-13T06:45:01.471Z,6.66
2022-11-13T06:50:01.375Z,6.5
2022-11-13T06:55:01.825Z,6.45
2022-11-13T07:00:02.147Z,6.52
2022-11-13T07:05:01.288Z,6.51
2022-11-13T07:10:02.124Z,6.46
2022-11-13T07:15:02.254Z,6.45
2022-11-13T07:20:01.491Z,6.5
2022-11-13T07:25:01.733Z,6.72
2022-11-13T07:30:03.923Z,6.96
2022-11-13T07:35:01.984Z,7
2022-11-13T07:40:02.180Z,7.04
2022-11-13T07:45:02.215Z,7.07
2022-11-13T07:50:07.040Z,7.19
2022-11-13T07:55:02.143Z,7.31
2022-11-13T08:00:01.610Z,7.48
2022-11-13T08:05:02.044Z,7.69
2022-11-13T08:10:01.336Z,7.69
2022-11-13T08:15:01.306Z,7.84
2022-11-13T08:20:02.140Z,7.91
2022-11-13T08:25:01.813Z,7.96
2022-11-13T08:30:02.185Z,7.69
2022-11-13T08:35:02.124Z,7.57
2022-11-13T08:40:02.195Z,7.41
2022-11-13T08:45:01.920Z,7.38
2022-11-13T08:50:02.000Z,7.63
2022-11-13T08:55:02.013Z,7.85
2022-11-13T09:00:01.889Z,8.53
2022-11-13T09:05:02.221Z,9.04
2022-11-13T09:10:01.640Z,9.39
2022-11-13T09:15:01.880Z,9.7
2022-11-13T09:20:04.180Z,10.21
2022-11-13T09:25:01.447Z,10.55
2022-11-13T09:30:01.729Z,10.81
2022-11-13T09:35:01.765Z,10.87
2022-11-13T09:40:01.718Z,10.94
2022-11-13T09:45:01.498Z,11.09
2022-11-13T09:50:01.862Z,11.18
2022-11-13T09:55:02.204Z,11.32
2022-11-13T10:00:02.138Z,11.52
2022-11-13T10:05:02.168Z,11.62
2022-11-13T10:10:02.220Z,11.72
2022-11-13T10:15:02.161Z,11.83
2022-11-13T10:20:01.297Z,12.03
2022-11-13T10:25:01.497Z,12.22
2022-11-13T10:30:01.800Z,12.37
2022-11-13T10:35:01.933Z,12.52
2022-11-13T10:40:01.817Z,12.69
2022-11-13T10:45:01.323Z,12.84
2022-11-13T10:50:01.461Z,13.14
2022-11-13T10:55:01.411Z,13.23
2022-11-13T11:00:01.633Z,13.43
2022-11-13T11:05:02.066Z,13.52
2022-11-13T11:10:02.154Z,13.58
2022-11-13T11:15:01.933Z,13.61
2022-11-13T11:20:02.219Z,13.73
2022-11-13T11:25:01.315Z,13.79
2022-11-13T11:30:01.466Z,13.89
2022-11-13T11:35:01.683Z,14.05
2022-11-13T11:40:01.762Z,14.17
2022-11-13T11:45:01.807Z,14.17
2022-11-13T11:50:01.850Z,14.18
2022-11-13T11:55:01.905Z,14.24
2022-11-13T12:00:01.859Z,14.17
2022-11-13T12:05:02.067Z,14.23
2022-11-13T12:10:02.029Z,14.23
2022-11-13T12:15:02.100Z,14.23
2022-11-13T12:20:01.909Z,14.25
2022-11-13T12:25:01.896Z,14.41
2022-11-13T12:30:02.036Z,14.33
2022-11-13T12:35:02.238Z,14.27
2022-11-13T12:40:02.073Z,14.33
2022-11-13T12:45:01.295Z,14.28
2022-11-13T12:50:01.268Z,14.27
2022-11-13T12:55:01.440Z,14.24
2022-11-13T13:00:01.576Z,14.26
2022-11-13T13:05:01.741Z,14.34
2022-11-13T13:10:01.896Z,14.41
2022-11-13T13:15:01.860Z,14.1
2022-11-13T13:20:01.938Z,14.17
2022-11-13T13:25:01.954Z,14.13
2022-11-13T13:30:01.949Z,14.4
2022-11-13T13:35:02.007Z,14.51
2022-11-13T13:40:02.089Z,14.7
2022-11-13T13:45:01.948Z,14.91
2022-11-13T13:50:01.931Z,14.92
2022-11-13T13:55:01.938Z,14.78
2022-11-13T14:00:01.988Z,14.74
2022-11-13T14:05:02.196Z,14.89
2022-11-13T14:10:01.623Z,14.86
2022-11-13T14:15:01.724Z,14.65
2022-11-13T14:20:02.141Z,14.69
2022-11-13T14:25:02.310Z,14.73
2022-11-13T14:30:02.132Z,14.58
2022-11-13T14:35:01.579Z,14.41
2022-11-13T14:40:02.198Z,14.34
2022-11-13T14:45:01.984Z,14
2022-11-13T14:50:02.065Z,13.98
2022-11-13T14:55:14.839Z,13.99
2022-11-13T15:00:02.212Z,14.08
2022-11-13T15:05:01.347Z,13.81
2022-11-13T15:10:02.183Z,13.75
2022-11-13T15:15:01.990Z,13.75
2022-11-13T15:20:08.255Z,13.16
2022-11-13T15:25:02.105Z,12.88
2022-11-13T15:30:02.374Z,12.4
2022-11-13T15:35:02.041Z,11.67
2022-11-13T15:40:02.168Z,11.67
2022-11-13T15:45:01.595Z,11.28
2022-11-13T15:50:16.586Z,10.85
2022-11-13T15:55:01.754Z,10.53
2022-11-13T16:00:02.063Z,10.08
2022-11-13T16:05:01.575Z,9.68
2022-11-13T16:10:01.807Z,9.45
2022-11-13T16:15:01.960Z,9.33
2022-11-13T16:20:01.358Z,9.34
2022-11-13T16:25:01.409Z,9.32
2022-11-13T16:30:06.622Z,9
2022-11-13T16:35:02.070Z,8.72
2022-11-13T16:40:01.747Z,8.5
2022-11-13T16:45:01.333Z,8.83
2022-11-13T16:50:01.675Z,8.85
2022-11-13T16:55:06.347Z,8.8
2022-11-13T17:00:01.777Z,8.96
2022-11-13T17:05:01.270Z,8.63
2022-11-13T17:10:29.780Z,8.53
2022-11-13T17:15:01.478Z,8.56
2022-11-13T17:20:02.020Z,8.15
2022-11-13T17:25:01.884Z,7.9
2022-11-13T17:30:02.067Z,8.29
2022-11-13T17:35:02.110Z,8.24
2022-11-13T17:40:01.350Z,8.09
2022-11-13T17:45:01.767Z,8.06
2022-11-13T17:50:06.672Z,8.15
2022-11-13T17:55:01.291Z,7.96
2022-11-13T18:00:01.661Z,7.78
2022-11-13T18:05:02.048Z,7.5
2022-11-13T18:10:02.159Z,7.64
2022-11-13T18:15:02.056Z,8.41
2022-11-13T18:20:02.207Z,8.79
2022-11-13T18:25:02.238Z,8.98
2022-11-13T18:30:01.365Z,9.08
2022-11-13T18:35:01.562Z,9.01
2022-11-13T18:40:01.439Z,8.76
2022-11-13T18:45:05.759Z,8.42
2022-11-13T18:50:01.830Z,8.05
2022-11-13T18:55:01.979Z,8.18
2022-11-13T19:00:02.104Z,8.12
2022-11-13T19:05:02.262Z,8.12
2022-11-13T19:10:01.918Z,8.23
2022-11-13T19:15:01.988Z,7.92
2022-11-13T19:20:02.196Z,7.76
2022-11-13T19:25:02.220Z,7.47
2022-11-13T19:30:02.014Z,7.02
2022-11-13T19:35:02.025Z,6.55
2022-11-13T19:40:01.915Z,6.46
2022-11-13T19:45:01.962Z,6.78
2022-11-13T19:50:02.026Z,7.27
2022-11-13T19:55:01.518Z,7.28
2022-11-13T20:00:02.277Z,7.37
2022-11-13T20:05:01.966Z,7.44
2022-11-13T20:10:02.015Z,7.55
2022-11-13T20:15:02.284Z,7.69
2022-11-13T20:20:01.280Z,8.01
2022-11-13T20:25:02.042Z,8.15
2022-11-13T20:30:02.235Z,8.16
2022-11-13T20:35:01.639Z,8.23
2022-11-13T20:40:01.476Z,8.46
2022-11-13T20:45:01.840Z,8.22
2022-11-13T20:50:02.112Z,8.07
2022-11-13T20:55:01.497Z,8.26
2022-11-13T21:00:01.922Z,8.32
2022-11-13T21:05:01.637Z,8.22
2022-11-13T21:10:01.672Z,8.15
2022-11-13T21:15:01.636Z,8.04
2022-11-13T21:20:01.566Z,7.87
2022-11-13T21:25:01.897Z,7.64
2022-11-13T21:30:02.535Z,7.5
2022-11-13T21:35:01.413Z,7.32
2022-11-13T21:40:01.321Z,7.44
2022-11-13T21:45:02.263Z,7.31
2022-11-13T21:50:01.608Z,7.17
2022-11-13T21:55:01.370Z,6.94
2022-11-13T22:00:01.742Z,6.6
2022-11-13T22:05:02.011Z,6.35
2022-11-13T22:10:06.914Z,6.19
2022-11-13T22:15:01.600Z,6.02
2022-11-13T22:20:01.582Z,5.89
2022-11-13T22:25:01.722Z,5.68
2022-11-13T22:30:01.659Z,5.48
2022-11-13T22:35:01.247Z,5.4
2022-11-13T22:40:02.189Z,5.25
2022-11-13T22:45:01.610Z,5.12
2022-11-13T22:50:01.681Z,5.31
2022-11-13T22:55:01.989Z,5.89
2022-11-13T23:00:04.363Z,6.2
2022-11-13T23:05:01.937Z,6.16
2022-11-13T23:10:01.778Z,6.02
2022-11-13T23:15:02.067Z,5.89
2022-11-13T23:20:02.018Z,5.74
2022-11-13T23:25:01.385Z,5.49
2022-11-13T23:30:01.940Z,5.28
2022-11-13T23:35:01.891Z,5.37
2022-11-13T23:40:02.067Z,5.7
2022-11-13T23:45:01.773Z,6.13
2022-11-13T23:50:01.865Z,6.56
2022-11-13T23:55:01.881Z,6.83
